Wildwood, New York
Current Conditions -  °F | °C
As of 6:56 AM on Saturday 01 Nov 2014 (Local Time) from KHWV Reporting Station
Light Rain Light Rain  
Wind Chill: 43°   Ceiling: 7000
Heat Index: 48°   Visibility: 10mi
Dew Point: 39°   Wind: 10mph
Humidity: 71%   Direction: 20°NNE
Pressure: 29.8"   Gusts: 23mph
Location:  40.953°N, 72.8286°W
Report Text: KHWV 011056Z AUTO 02009G20KT 10SM -RA BKN070 OVC085 09/04 A2980 RMK AO2 SLP091 P0000 T00890039 TSNO
Loading
Personal Weather Stations






























Interactive Weather Map
Tropical Storm Tracking
New forecast layout! Learn more

10-Day Weather Forecast

Advertisements
Track Severe Weather on mobile